Time;durP1;ratioP1;P1;durP2;ratioP2;P2;SDS_P1;SDS_P2;PMS_P1;PMS_P2;Temp;Humidity;BMP_temperature;BMP_pressure;BME280_temperature;BME280_humidity;BME280_pressure;Samples;Min_cycle;Max_cycle;Signal;HPM_P1;HPM_P2
2023/04/13 00:02:00;;;;;;;3.80;2.15;;;5.00;99.90;;;;;;5076230;28;20470;-22
2023/04/13 00:04:26;;;;;;;6.65;2.25;;;5.00;99.90;;;;;;5058488;28;20479;-22
2023/04/13 00:06:52;;;;;;;7.90;2.78;;;5.10;99.90;;;;;;5076272;28;20045;-22
2023/04/13 00:09:17;;;;;;;2.58;1.88;;;5.00;99.90;;;;;;5058310;28;20437;-22
2023/04/13 00:11:45;;;;;;;5.82;2.65;;;5.10;99.90;;;;;;5058360;28;20119;-22
2023/04/13 00:14:11;;;;;;;6.07;2.08;;;5.10;99.90;;;;;;5058613;28;20048;-22
2023/04/13 00:16:37;;;;;;;5.13;2.13;;;5.20;99.90;;;;;;5076600;28;20079;-22
2023/04/13 00:19:03;;;;;;;4.97;2.20;;;5.30;99.90;;;;;;5075671;28;20084;-22
2023/04/13 00:21:29;;;;;;;5.60;2.05;;;5.30;99.90;;;;;;5075883;28;20040;-22
2023/04/13 00:23:55;;;;;;;6.30;2.42;;;5.50;99.90;;;;;;5075952;28;20166;-22
2023/04/13 00:26:20;;;;;;;8.68;3.08;;;5.50;99.90;;;;;;5075771;28;20101;-22
2023/04/13 00:28:47;;;;;;;5.88;2.28;;;5.70;99.90;;;;;;5076697;28;20053;-22
2023/04/13 00:31:12;;;;;;;3.97;1.92;;;5.60;99.90;;;;;;5075793;28;20052;-22
2023/04/13 00:33:38;;;;;;;4.80;2.17;;;5.70;99.90;;;;;;5076850;28;20056;-22
2023/04/13 00:36:05;;;;;;;4.22;2.05;;;5.80;84.10;;;;;;5075672;28;20056;-22
2023/04/13 00:38:31;;;;;;;4.32;2.03;;;5.90;53.40;;;;;;5075638;28;20044;-22
2023/04/13 00:40:56;;;;;;;9.35;2.17;;;5.90;7.00;;;;;;5075492;28;20056;-22
2023/04/13 00:43:22;;;;;;;3.42;2.00;;;6.00;2.00;;;;;;5057900;28;20135;-22
2023/04/13 00:45:48;;;;;;;3.65;1.75;;;6.00;1.00;;;;;;5042056;28;20133;-22
2023/04/13 00:48:14;;;;;;;3.67;1.95;;;6.00;1.00;;;;;;5075423;28;20044;-22
2023/04/13 00:50:41;;;;;;;3.35;1.90;;;6.00;1.00;;;;;;5041014;28;20048;-22
2023/04/13 00:53:11;;;;;;;4.40;2.63;;;6.10;1.00;;;;;;5075355;28;20368;-22
2023/04/13 00:55:39;;;;;;;4.97;2.67;;;6.10;99.90;;;;;;5074656;28;20509;-22
2023/04/13 00:58:05;;;;;;;5.00;2.60;;;6.00;99.90;;;;;;5075301;28;20110;-22
2023/04/13 01:00:30;;;;;;;5.38;2.63;;;5.90;99.90;;;;;;5075193;28;20284;-22
2023/04/13 01:03:00;;;;;;;7.53;2.72;;;5.80;99.90;;;;;;5057162;28;20075;-21
2023/04/13 01:05:30;;;;;;;4.20;2.65;;;5.70;1.00;;;;;;5075062;28;20052;-22
2023/04/13 01:08:23;;;;;;;5.85;2.45;;;5.60;1.00;;;;;;5075066;28;20045;-22
2023/04/13 01:11:06;;;;;;;4.67;2.00;;;5.60;72.50;;;;;;5057439;28;20045;-22
2023/04/13 01:13:42;;;;;;;5.78;2.88;;;5.70;83.90;;;;;;5075240;28;20315;-21
2023/04/13 01:16:43;;;;;;;7.63;3.28;;;5.60;99.90;;;;;;5057749;28;20091;-22
2023/04/13 01:19:39;;;;;;;7.00;3.10;;;5.50;99.90;;;;;;5053893;28;20051;-22
2023/04/13 01:22:07;;;;;;;7.68;4.20;;;5.40;99.90;;;;;;5074729;28;20501;-22
2023/04/13 01:24:42;;;;;;;10.27;5.57;;;5.40;99.90;;;;;;5074684;28;20091;-22
2023/04/13 01:27:19;;;;;;;8.07;4.53;;;5.30;99.90;;;;;;5056616;28;20045;-22
2023/04/13 01:29:45;;;;;;;8.55;3.28;;;5.30;99.90;;;;;;5074617;28;20475;-22
2023/04/13 01:32:16;;;;;;;4.78;3.70;;;5.30;99.90;;;;;;5074423;28;20139;-22
2023/04/13 01:34:41;;;;;;;8.13;3.78;;;5.20;99.90;;;;;;5057562;28;20057;-22
2023/04/13 01:37:08;;;;;;;5.25;2.97;;;5.10;99.90;;;;;;5056710;28;20448;-22
2023/04/13 01:39:36;;;;;;;10.93;2.90;;;5.10;99.90;;;;;;5056757;28;20123;-23
2023/04/13 01:42:02;;;;;;;8.20;3.22;;;5.10;99.90;;;;;;5074293;28;20083;-22
2023/04/13 01:44:32;;;;;;;5.97;2.65;;;5.10;99.90;;;;;;5074353;28;20407;-22
2023/04/13 01:47:14;;;;;;;6.47;3.70;;;5.10;99.90;;;;;;5074271;28;20124;-22
2023/04/13 01:49:45;;;;;;;6.13;3.70;;;5.10;99.90;;;;;;5056648;28;20080;-21
2023/04/13 01:52:12;;;;;;;6.20;3.22;;;5.10;99.90;;;;;;5074862;28;20083;-21
2023/04/13 01:54:42;;;;;;;6.35;4.22;;;5.20;99.90;;;;;;5056314;28;20613;-22
2023/04/13 01:57:09;;;;;;;8.23;3.90;;;5.30;99.90;;;;;;5074718;28;20382;-22
2023/04/13 01:59:35;;;;;;;5.25;2.95;;;5.20;99.90;;;;;;5074074;28;20052;-22
2023/04/13 02:02:01;;;;;;;5.63;3.65;;;5.20;99.90;;;;;;5073955;28;20040;-21
2023/04/13 02:04:27;;;;;;;6.57;3.65;;;5.30;99.90;;;;;;5074058;28;20051;-21
2023/04/13 02:06:52;;;;;;;5.25;3.40;;;5.20;99.90;;;;;;5055561;28;20402;-21
2023/04/13 02:09:18;;;;;;;5.05;2.92;;;5.30;99.90;;;;;;5073819;28;20049;-21
2023/04/13 02:11:44;;;;;;;9.07;3.20;;;5.30;99.90;;;;;;5073938;28;20051;-22
2023/04/13 02:14:09;;;;;;;6.30;3.13;;;5.30;99.90;;;;;;5040216;28;20529;-22
2023/04/13 02:16:35;;;;;;;6.65;3.05;;;5.30;99.90;;;;;;5056798;28;20052;-21
2023/04/13 02:19:01;;;;;;;7.05;2.90;;;5.30;99.90;;;;;;5073811;28;20052;-22
2023/04/13 02:21:27;;;;;;;6.70;3.25;;;5.30;99.90;;;;;;5073661;28;20087;-22
2023/04/13 02:23:52;;;;;;;4.63;2.90;;;5.30;99.90;;;;;;5073825;28;20052;-22
2023/04/13 02:26:19;;;;;;;6.65;3.85;;;5.40;99.90;;;;;;5039433;28;20048;-22
2023/04/13 02:28:45;;;;;;;5.35;2.78;;;5.30;99.90;;;;;;5073727;28;20129;-22
2023/04/13 02:31:15;;;;;;;8.27;3.25;;;5.30;99.90;;;;;;5074487;28;20067;-22
2023/04/13 02:33:42;;;;;;;5.38;3.63;;;5.30;99.90;;;;;;5074232;28;20468;-22
2023/04/13 02:36:09;;;;;;;3.10;2.38;;;5.40;99.90;;;;;;5073654;28;20052;-22
2023/04/13 02:38:36;;;;;;;6.57;3.20;;;5.30;99.90;;;;;;5055814;28;20078;-22
2023/04/13 02:41:02;;;;;;;5.45;3.30;;;5.30;99.90;;;;;;5055886;28;20084;-22
2023/04/13 02:43:28;;;;;;;7.43;3.08;;;5.30;99.90;;;;;;5056756;28;20044;-22
2023/04/13 02:45:55;;;;;;;5.47;2.80;;;5.30;99.90;;;;;;5074125;28;20048;-22
2023/04/13 02:48:21;;;;;;;8.80;3.13;;;5.30;99.90;;;;;;5073747;28;20526;-22
2023/04/13 02:50:47;;;;;;;3.75;2.65;;;5.30;99.90;;;;;;5074295;28;20049;-22
2023/04/13 02:53:14;;;;;;;5.90;2.80;;;5.40;99.90;;;;;;5073445;28;20141;-22
2023/04/13 02:55:39;;;;;;;6.50;3.10;;;5.30;99.90;;;;;;5073490;28;20048;-23
2023/04/13 02:58:07;;;;;;;5.68;2.53;;;5.30;99.90;;;;;;5073377;28;20040;-23
2023/04/13 03:00:32;;;;;;;9.52;3.50;;;5.30;99.90;;;;;;5073999;28;20044;-22
2023/04/13 03:02:58;;;;;;;6.07;2.70;;;5.30;99.90;;;;;;5055628;28;20509;-22
2023/04/13 03:05:25;;;;;;;5.35;2.35;;;5.40;99.90;;;;;;5073289;28;20048;-22
2023/04/13 03:07:51;;;;;;;5.38;2.25;;;5.40;99.90;;;;;;5055682;28;20048;-22
2023/04/13 03:10:17;;;;;;;4.35;2.13;;;5.40;99.90;;;;;;5073337;28;20049;-22
2023/04/13 03:12:43;;;;;;;5.82;2.60;;;5.40;99.90;;;;;;5073280;28;20080;-22
2023/04/13 03:15:10;;;;;;;5.13;2.13;;;5.40;99.90;;;;;;5056389;28;20079;-22
2023/04/13 03:17:40;;;;;;;4.63;2.45;;;5.40;99.90;;;;;;5073216;28;20067;-22
2023/04/13 03:20:14;;;;;;;3.50;1.70;;;5.40;99.90;;;;;;5077060;28;20047;-22
2023/04/13 03:22:40;;;;;;;3.15;2.03;;;5.40;99.90;;;;;;5077027;28;20475;-22
2023/04/13 03:25:07;;;;;;;4.47;2.28;;;5.50;99.90;;;;;;5059243;28;20101;-22
2023/04/13 03:27:33;;;;;;;3.75;2.33;;;5.50;99.90;;;;;;5076900;28;20087;-22
2023/04/13 03:29:59;;;;;;;7.38;2.42;;;5.50;99.90;;;;;;5059624;28;20052;-22
2023/04/13 03:32:26;;;;;;;3.75;1.73;;;5.50;99.90;;;;;;5077253;28;20056;-22
2023/04/13 03:34:51;;;;;;;3.45;2.22;;;5.50;99.90;;;;;;5076835;28;20060;-23
2023/04/13 03:37:17;;;;;;;4.82;2.00;;;5.50;99.90;;;;;;5058996;28;20047;-23
2023/04/13 03:39:43;;;;;;;5.53;2.05;;;5.50;99.90;;;;;;5058982;28;20052;-22
2023/04/13 03:42:09;;;;;;;3.58;1.98;;;5.50;99.90;;;;;;5077431;28;20043;-22
2023/04/13 03:44:34;;;;;;;2.25;1.52;;;5.50;99.90;;;;;;5076623;28;20084;-22
2023/04/13 03:47:00;;;;;;;3.92;2.35;;;5.60;99.90;;;;;;5076668;28;20059;-22
2023/04/13 03:49:26;;;;;;;4.15;1.98;;;5.50;99.90;;;;;;5076649;28;20063;-22
2023/04/13 03:51:52;;;;;;;3.80;1.75;;;5.60;99.90;;;;;;5058924;28;20143;-22
2023/04/13 03:54:17;;;;;;;9.32;2.22;;;5.50;99.90;;;;;;5076779;28;20044;-22
2023/04/13 03:56:43;;;;;;;3.28;1.35;;;5.60;99.90;;;;;;5076464;28;20402;-22
2023/04/13 03:59:09;;;;;;;2.65;1.63;;;5.70;99.90;;;;;;5077207;28;20053;-22
2023/04/13 04:01:34;;;;;;;3.22;1.67;;;5.60;99.90;;;;;;5058466;28;20466;-22
2023/04/13 04:04:00;;;;;;;3.00;1.52;;;5.70;99.90;;;;;;5058562;28;20500;-22
2023/04/13 04:06:26;;;;;;;2.67;1.58;;;5.70;99.90;;;;;;5058630;28;20050;-22
2023/04/13 04:08:52;;;;;;;3.97;2.15;;;5.70;99.90;;;;;;5076197;28;20044;-22
2023/04/13 04:11:18;;;;;;;2.10;1.10;;;5.60;99.90;;;;;;5058407;28;20054;-22
2023/04/13 04:13:44;;;;;;;3.42;1.92;;;5.70;99.90;;;;;;5058826;28;20060;-22
2023/04/13 04:16:10;;;;;;;2.70;1.67;;;5.60;99.90;;;;;;5076182;28;20505;-22
2023/04/13 04:18:36;;;;;;;2.30;1.30;;;5.60;99.90;;;;;;5076121;28;20127;-22
2023/04/13 04:21:03;;;;;;;2.13;1.25;;;5.60;99.90;;;;;;5076721;28;20044;-22
2023/04/13 04:23:29;;;;;;;2.55;1.50;;;5.50;99.90;;;;;;5058363;28;20083;-22
2023/04/13 04:25:58;;;;;;;3.20;2.28;;;5.50;99.90;;;;;;5075890;28;20048;-22
2023/04/13 04:28:24;;;;;;;2.97;1.55;;;5.50;99.90;;;;;;5075867;28;20106;-22
2023/04/13 04:30:54;;;;;;;2.38;1.52;;;5.30;99.90;;;;;;5074357;28;20437;-22
2023/04/13 04:33:23;;;;;;;3.97;2.25;;;5.30;99.90;;;;;;5057578;28;20120;-22
2023/04/13 04:35:50;;;;;;;3.63;1.63;;;5.10;99.90;;;;;;5075786;28;20052;-22
2023/04/13 04:38:20;;;;;;;3.15;1.60;;;5.10;99.90;;;;;;5075974;28;20048;-22
2023/04/13 04:40:48;;;;;;;3.78;2.10;;;5.10;99.90;;;;;;5057705;28;20048;-22
2023/04/13 04:43:14;;;;;;;2.53;1.58;;;5.00;99.90;;;;;;5075524;28;20070;-22
2023/04/13 04:45:45;;;;;;;3.25;2.28;;;5.00;99.90;;;;;;5058463;28;20041;-22
2023/04/13 04:48:14;;;;;;;3.17;1.92;;;4.90;99.90;;;;;;5075434;28;20044;-22
2023/04/13 04:50:44;;;;;;;4.05;2.35;;;4.80;99.90;;;;;;5075461;28;20133;-22
2023/04/13 04:53:13;;;;;;;3.53;2.30;;;4.80;99.90;;;;;;5041812;28;20056;-22
2023/04/13 04:55:38;;;;;;;4.28;2.20;;;4.90;99.90;;;;;;5075296;28;20185;-23
2023/04/13 04:58:04;;;;;;;4.03;2.55;;;4.90;99.90;;;;;;5058090;28;20546;-22
2023/04/13 05:00:30;;;;;;;5.70;2.15;;;4.90;99.90;;;;;;5057580;28;20131;-22
2023/04/13 05:03:00;;;;;;;4.25;2.20;;;4.90;99.90;;;;;;5075397;28;20086;-22
2023/04/13 05:05:28;;;;;;;4.15;2.03;;;5.10;99.90;;;;;;5075094;28;20055;-22
2023/04/13 05:07:53;;;;;;;2.90;2.20;;;5.20;99.90;;;;;;5075060;28;20372;-22
2023/04/13 05:10:19;;;;;;;4.13;2.33;;;5.30;99.90;;;;;;5075283;28;20107;-22
2023/04/13 05:12:46;;;;;;;4.95;2.63;;;5.20;99.90;;;;;;5074972;28;20487;-22
2023/04/13 05:15:11;;;;;;;4.88;2.78;;;5.20;99.90;;;;;;5057105;28;20052;-22
2023/04/13 05:17:37;;;;;;;3.55;2.28;;;5.10;99.90;;;;;;5057215;28;20490;-22
2023/04/13 05:20:05;;;;;;;4.88;2.75;;;5.10;99.90;;;;;;5057590;28;20048;-22
2023/04/13 05:22:31;;;;;;;4.53;3.17;;;5.20;99.90;;;;;;5056931;28;20101;-22
2023/04/13 05:24:57;;;;;;;5.38;3.45;;;5.20;99.90;;;;;;5056895;28;20052;-22
2023/04/13 05:27:23;;;;;;;9.30;3.88;;;5.20;99.90;;;;;;5074547;28;20048;-22
2023/04/13 05:29:49;;;;;;;6.55;3.08;;;5.10;99.90;;;;;;5074229;28;20098;-22
2023/04/13 05:32:15;;;;;;;5.70;4.00;;;5.30;99.90;;;;;;5074131;28;20056;-22
2023/04/13 05:34:40;;;;;;;7.00;4.03;;;5.30;99.90;;;;;;5074060;28;20066;-22
2023/04/13 05:37:07;;;;;;;8.25;4.43;;;5.30;99.90;;;;;;5074370;28;20044;-22
2023/04/13 05:39:33;;;;;;;4.80;3.63;;;5.40;99.90;;;;;;5074222;28;20048;-22
2023/04/13 05:42:00;;;;;;;8.70;3.38;;;5.40;99.90;;;;;;5074636;28;20366;-22
2023/04/13 05:44:26;;;;;;;6.75;3.83;;;5.50;99.90;;;;;;5074458;28;20051;-22
2023/04/13 05:46:53;;;;;;;7.07;3.97;;;5.50;99.90;;;;;;5040522;28;20049;-22
2023/04/13 05:49:18;;;;;;;4.97;3.40;;;5.60;99.90;;;;;;5074100;28;20094;-22
2023/04/13 05:51:44;;;;;;;5.22;3.33;;;5.70;99.90;;;;;;5074320;28;20041;-22
2023/04/13 05:54:12;;;;;;;5.75;3.28;;;5.90;99.90;;;;;;5074040;28;20049;-22
2023/04/13 05:56:39;;;;;;;6.47;2.88;;;5.80;99.90;;;;;;5074011;28;20128;-22
2023/04/13 05:59:04;;;;;;;5.57;3.00;;;6.00;99.90;;;;;;5056978;28;20114;-22
2023/04/13 06:01:30;;;;;;;6.65;2.72;;;6.10;99.90;;;;;;5073814;28;20471;-23
2023/04/13 06:03:58;;;;;;;8.13;3.63;;;6.20;99.90;;;;;;5056467;28;20044;-22
2023/04/13 06:06:24;;;;;;;6.97;2.92;;;6.30;99.90;;;;;;5073857;28;20136;-22
2023/04/13 06:08:51;;;;;;;6.28;2.83;;;6.30;99.90;;;;;;5056209;28;20114;-22
2023/04/13 06:11:17;;;;;;;2.83;1.65;;;6.40;99.90;;;;;;5073698;28;20079;-22
2023/04/13 06:13:43;;;;;;;12.32;2.50;;;6.40;99.90;;;;;;5039896;28;20087;-22
2023/04/13 06:16:09;;;;;;;8.25;1.63;;;6.20;99.90;;;;;;5056137;28;20056;-22
2023/04/13 06:18:34;;;;;;;8.25;2.28;;;6.00;99.90;;;;;;5074012;28;20048;-22
2023/04/13 06:21:00;;;;;;;4.38;1.63;;;5.80;99.90;;;;;;5056035;28;20045;-22
2023/04/13 06:23:26;;;;;;;5.00;2.25;;;5.70;99.90;;;;;;5056669;28;20051;-22
2023/04/13 06:25:53;;;;;;;3.80;1.98;;;5.70;99.90;;;;;;5073656;28;20084;-22
2023/04/13 06:28:19;;;;;;;6.78;2.60;;;5.80;99.90;;;;;;5073651;28;20040;-22
2023/04/13 06:30:45;;;;;;;8.80;2.05;;;5.80;99.90;;;;;;5073289;28;20045;-22
2023/04/13 06:33:13;;;;;;;5.88;1.70;;;5.90;99.90;;;;;;5073532;28;20063;-22
2023/04/13 06:35:39;;;;;;;6.38;2.00;;;5.90;99.90;;;;;;5056667;28;20044;-22
2023/04/13 06:38:06;;;;;;;6.43;2.08;;;6.00;99.90;;;;;;5073599;28;20056;-22
2023/04/13 06:40:32;;;;;;;5.40;2.20;;;6.10;99.90;;;;;;5055994;28;20132;-22
2023/04/13 06:42:58;;;;;;;6.20;1.83;;;6.10;99.90;;;;;;5055635;28;20033;-22
2023/04/13 06:45:25;;;;;;;5.22;1.65;;;6.10;99.90;;;;;;5040039;28;20060;-22
2023/04/13 06:47:52;;;;;;;3.80;1.75;;;6.10;99.90;;;;;;5055785;28;20391;-22
2023/04/13 06:50:18;;;;;;;5.63;1.45;;;6.10;99.90;;;;;;5023005;28;20474;-23
2023/04/13 06:52:46;;;;;;;4.03;2.10;;;6.20;99.90;;;;;;5055578;28;20394;-22
2023/04/13 06:55:12;;;;;;;5.43;2.20;;;6.20;99.90;;;;;;5059273;28;20059;-22
2023/04/13 06:57:38;;;;;;;7.53;2.42;;;6.20;99.90;;;;;;5077460;28;20055;-22
2023/04/13 07:00:06;;;;;;;8.40;2.63;;;6.40;99.90;;;;;;5077492;28;20048;-22
2023/04/13 07:02:32;;;;;;;5.32;2.05;;;6.40;99.90;;;;;;5077297;28;20229;-22
2023/04/13 07:04:58;;;;;;;3.30;1.90;;;6.50;99.90;;;;;;5077376;28;20098;-22
2023/04/13 07:07:24;;;;;;;8.57;2.75;;;6.60;99.90;;;;;;5077316;28;20048;-22
2023/04/13 07:09:50;;;;;;;6.22;2.15;;;6.70;99.90;;;;;;5077281;28;20048;-22
2023/04/13 07:12:16;;;;;;;6.75;3.33;;;6.70;99.90;;;;;;5077205;28;20045;-22
2023/04/13 07:14:41;;;;;;;8.25;3.15;;;6.80;99.90;;;;;;5077222;28;20052;-22
2023/04/13 07:17:07;;;;;;;11.63;3.75;;;6.90;99.90;;;;;;5059529;28;20082;-22
2023/04/13 07:19:34;;;;;;;5.38;2.20;;;6.90;99.90;;;;;;5059374;28;20080;-23
2023/04/13 07:22:01;;;;;;;10.80;2.78;;;7.00;99.90;;;;;;5076978;28;20079;-22
2023/04/13 07:24:27;;;;;;;5.75;2.60;;;7.10;99.90;;;;;;5077011;28;20132;-22
2023/04/13 07:26:57;;;;;;;9.13;3.40;;;7.10;99.90;;;;;;5077476;28;20071;-22
2023/04/13 07:29:25;;;;;;;8.32;2.75;;;7.30;99.90;;;;;;5076895;28;20045;-22
2023/04/13 07:31:59;;;;;;;8.23;2.25;;;7.40;99.90;;;;;;5058693;28;20040;-22
2023/04/13 07:34:26;;;;;;;6.28;2.00;;;7.50;99.90;;;;;;5059071;28;20058;-22
2023/04/13 07:36:51;;;;;;;5.10;2.28;;;7.60;99.90;;;;;;5077419;28;20052;-23
2023/04/13 07:39:18;;;;;;;9.80;2.72;;;7.80;99.90;;;;;;5059507;28;20098;-22
2023/04/13 07:41:45;;;;;;;9.30;2.42;;;7.80;99.90;;;;;;5058918;28;20048;-22
2023/04/13 07:44:11;;;;;;;6.50;2.47;;;8.10;99.90;;;;;;5076687;28;20084;-23
2023/04/13 07:46:37;;;;;;;9.40;1.60;;;8.20;1.00;;;;;;5076948;28;20402;-23
2023/04/13 07:49:03;;;;;;;7.80;1.92;;;8.50;1.00;;;;;;5076517;28;20045;-23
2023/04/13 07:51:31;;;;;;;6.60;1.40;;;8.30;99.90;;;;;;5076461;28;20051;-23
2023/04/13 07:53:56;;;;;;;6.82;2.03;;;8.20;1.00;;;;;;5076165;28;20407;-23
2023/04/13 07:56:22;;;;;;;6.32;1.40;;;8.10;1.00;;;;;;5058838;28;20052;-23
2023/04/13 07:58:48;;;;;;;5.20;1.40;;;8.10;1.00;;;;;;5076459;28;20531;-23
2023/04/13 08:01:13;;;;;;;8.52;1.85;;;8.20;1.00;;;;;;5076303;28;20059;-23
2023/04/13 08:03:39;;;;;;;7.47;1.73;;;8.40;1.00;;;;;;5076599;28;20479;-23
2023/04/13 08:06:06;;;;;;;8.18;1.80;;;8.60;99.90;;;;;;5058309;28;20054;-23
2023/04/13 08:08:32;;;;;;;7.28;1.58;;;8.60;99.90;;;;;;5076135;28;20045;-23
2023/04/13 08:10:58;;;;;;;8.00;1.67;;;8.80;99.90;;;;;;5076160;28;20067;-23
2023/04/13 08:13:25;;;;;;;7.60;1.75;;;8.70;1.00;;;;;;5076156;28;20127;-23
2023/04/13 08:15:51;;;;;;;4.50;1.15;;;8.80;99.90;;;;;;5076094;28;20131;-23
2023/04/13 08:18:17;;;;;;;8.48;1.50;;;9.20;99.90;;;;;;5076069;28;20402;-23
2023/04/13 08:20:44;;;;;;;3.45;1.20;;;9.20;1.00;;;;;;5076030;28;20052;-23
2023/04/13 08:23:10;;;;;;;6.63;1.38;;;9.20;1.00;;;;;;5075862;28;20546;-23
2023/04/13 08:25:40;;;;;;;5.32;1.48;;;9.20;1.00;;;;;;5075907;28;20048;-23
2023/04/13 08:28:06;;;;;;;11.10;2.60;;;9.50;32.50;;;;;;5076388;28;20040;-24
2023/04/13 08:30:33;;;;;;;5.03;0.90;;;9.50;1.00;;;;;;5075810;28;20102;-24
2023/04/13 08:32:59;;;;;;;5.50;1.17;;;9.20;1.00;;;;;;5075413;28;20052;-23
2023/04/13 08:35:25;;;;;;;6.10;1.55;;;9.10;1.00;;;;;;5075676;28;20048;-24
2023/04/13 08:37:52;;;;;;;5.63;1.17;;;9.00;99.90;;;;;;5075673;28;20056;-23
2023/04/13 08:40:19;;;;;;;5.57;1.52;;;8.70;1.00;;;;;;5075942;28;20048;-23
2023/04/13 08:42:46;;;;;;;3.65;1.15;;;8.40;99.90;;;;;;5076022;28;20203;-23
2023/04/13 08:45:13;;;;;;;6.15;1.27;;;8.10;1.00;;;;;;5075452;28;20047;-23
2023/04/13 08:47:40;;;;;;;3.00;1.13;;;8.10;1.00;;;;;;5076294;28;20045;-23
2023/04/13 08:50:07;;;;;;;6.18;1.38;;;8.10;1.00;;;;;;5075472;28;20076;-24
2023/04/13 08:52:35;;;;;;;6.25;1.38;;;8.10;1.00;;;;;;5075341;28;20056;-23
2023/04/13 08:55:03;;;;;;;3.15;1.23;;;7.90;99.90;;;;;;5075335;28;20045;-23
2023/04/13 08:57:30;;;;;;;5.85;1.23;;;7.70;99.90;;;;;;5075355;28;20055;-23
2023/04/13 08:59:57;;;;;;;6.20;1.15;;;7.80;99.90;;;;;;5075770;28;20114;-23
2023/04/13 09:02:32;;;;;;;3.00;0.40;;;8.00;99.90;;;;;;5075153;28;20135;-23
2023/04/13 09:05:03;;;;;;;3.13;0.50;;;8.00;99.90;;;;;;5057791;28;20428;-23
2023/04/13 09:07:33;;;;;;;2.15;0.73;;;8.20;99.90;;;;;;5075458;28;20044;-23
2023/04/13 09:09:59;;;;;;;3.35;0.95;;;8.30;99.90;;;;;;5075074;28;20135;-23
2023/04/13 09:12:26;;;;;;;2.00;0.40;;;8.50;99.90;;;;;;5057123;28;20102;-23
2023/04/13 09:14:52;;;;;;;1.98;0.50;;;8.60;99.90;;;;;;5075409;28;20048;-23
2023/04/13 09:17:29;;;;;;;3.40;0.95;;;8.30;99.90;;;;;;5057437;28;20056;-23
2023/04/13 09:19:56;;;;;;;2.28;0.50;;;8.10;99.90;;;;;;5041462;28;20110;-22
2023/04/13 09:22:23;;;;;;;4.97;0.60;;;8.10;99.90;;;;;;5074781;28;20165;-22
2023/04/13 09:24:49;;;;;;;4.30;0.80;;;8.00;99.90;;;;;;5057116;28;20044;-22
2023/04/13 09:27:22;;;;;;;1.27;0.38;;;7.80;99.90;;;;;;5041206;28;20051;-23
2023/04/13 09:29:52;;;;;;;1.10;0.15;;;7.40;99.90;;;;;;5074597;28;20059;-23
2023/04/13 09:32:22;;;;;;;2.90;0.43;;;7.10;99.90;;;;;;5074504;28;20056;-23
2023/04/13 09:35:03;;;;;;;1.38;0.30;;;7.00;99.90;;;;;;5075133;28;20049;-23
2023/04/13 09:37:34;;;;;;;3.72;0.55;;;7.10;99.90;;;;;;5075105;28;20467;-23
2023/04/13 09:40:13;;;;;;;1.85;0.40;;;7.30;99.90;;;;;;5056563;28;20052;-24
2023/04/13 09:42:57;;;;;;;2.78;0.70;;;7.30;99.90;;;;;;5073947;28;20490;-24
2023/04/13 09:45:23;;;;;;;3.75;0.55;;;7.70;99.90;;;;;;5057540;28;20048;-23
2023/04/13 09:47:51;;;;;;;5.97;0.95;;;8.00;99.90;;;;;;5074321;28;20052;-23
2023/04/13 09:50:27;;;;;;;3.65;0.50;;;7.80;99.90;;;;;;5056856;28;20121;-23
2023/04/13 09:53:06;;;;;;;3.22;0.45;;;7.60;99.90;;;;;;5075058;28;20052;-23
2023/04/13 09:55:33;;;;;;;0.77;0.10;;;7.70;99.90;;;;;;5056594;28;20056;-23
2023/04/13 09:58:13;;;;;;;0.90;0.20;;;8.30;99.90;;;;;;5073922;28;20567;-23
2023/04/13 10:00:41;;;;;;;0.85;0.22;;;8.50;99.90;;;;;;5074060;28;20101;-23
2023/04/13 10:03:14;;;;;;;1.33;0.00;;;8.10;4.90;;;;;;5073576;28;20437;-23
2023/04/13 10:05:42;;;;;;;0.82;0.10;;;7.70;1.00;;;;;;5074287;28;20490;-23
2023/04/13 10:08:11;;;;;;;0.10;0.03;;;7.50;98.30;;;;;;5073349;28;20051;-24
2023/04/13 10:10:38;;;;;;;0.65;0.10;;;7.50;99.90;;;;;;5073878;28;20113;-23
2023/04/13 10:13:16;;;;;;;0.93;0.20;;;7.60;98.70;;;;;;5055357;28;20048;-23
2023/04/13 10:16:02;;;;;;;0.95;0.20;;;7.70;40.00;;;;;;5074665;28;20048;-23
2023/04/13 10:18:58;;;;;;;0.60;0.15;;;7.80;1.00;;;;;;5032738;28;20056;-23
2023/04/13 10:21:28;;;;;;;2.10;0.30;;;8.80;51.10;;;;;;5073784;28;20498;-23
2023/04/13 10:23:54;;;;;;;1.55;0.38;;;9.40;99.90;;;;;;5056162;28;20098;-24
2023/04/13 10:26:33;;;;;;;3.30;0.10;;;9.70;99.90;;;;;;5073680;28;20056;-24
2023/04/13 10:29:03;;;;;;;0.43;0.10;;;9.60;99.90;;;;;;5073105;28;20449;-24
2023/04/13 10:31:47;;;;;;;0.98;0.17;;;9.60;99.90;;;;;;5073676;28;20047;-23
2023/04/13 10:34:27;;;;;;;0.50;0.22;;;10.10;1.00;;;;;;5055640;28;20052;-24
2023/04/13 10:37:03;;;;;;;2.10;0.52;;;10.00;1.00;;;;;;5073699;28;20475;-24
2023/04/13 10:39:33;;;;;;;3.38;0.32;;;10.10;99.90;;;;;;5073652;28;20048;-24
2023/04/13 10:42:09;;;;;;;2.70;0.68;;;10.00;99.90;;;;;;5055821;28;20131;-24
2023/04/13 10:44:52;;;;;;;1.42;0.30;;;9.80;99.90;;;;;;5073558;28;20048;-24
2023/04/13 10:47:20;;;;;;;4.78;0.55;;;9.70;99.90;;;;;;5055897;28;20040;-24
2023/04/13 10:49:47;;;;;;;5.47;1.25;;;9.10;1.00;;;;;;5055626;28;20060;-23
2023/04/13 10:52:14;;;;;;;6.18;0.77;;;8.70;99.90;;;;;;5073460;28;20047;-23
2023/04/13 10:54:41;;;;;;;7.35;1.75;;;8.30;99.90;;;;;;5073501;28;20095;-23
2023/04/13 10:57:08;;;;;;;2.88;0.45;;;8.00;1.00;;;;;;5073458;28;20506;-23
2023/04/13 10:59:43;;;;;;;4.82;0.70;;;7.90;6.90;;;;;;5073352;28;20052;-23
2023/04/13 11:02:13;;;;;;;5.15;0.57;;;7.80;79.20;;;;;;5038865;28;20098;-23
2023/04/13 11:04:44;;;;;;;6.93;1.23;;;7.90;99.90;;;;;;5055604;28;20158;-23
2023/04/13 11:07:15;;;;;;;4.53;0.80;;;8.30;99.90;;;;;;5073297;28;20049;-23
2023/04/13 11:09:51;;;;;;;1.25;0.65;;;8.30;99.90;;;;;;5073301;28;20534;-25
2023/04/13 11:12:18;;;;;;;3.60;0.60;;;8.10;71.00;;;;;;5073360;28;20040;-25
2023/04/13 11:14:48;;;;;;;2.40;0.60;;;8.20;99.90;;;;;;5074094;28;20040;-25
2023/04/13 11:17:17;;;;;;;3.80;0.60;;;8.70;99.90;;;;;;5055615;28;20044;-26
2023/04/13 11:19:51;;;;;;;9.32;0.88;;;9.40;99.90;;;;;;5039925;28;20099;-26
2023/04/13 11:22:20;;;;;;;9.13;1.15;;;10.10;99.90;;;;;;5039574;28;20067;-26
2023/04/13 11:24:46;;;;;;;7.65;1.23;;;10.00;1.00;;;;;;5073747;28;20134;-26
2023/04/13 11:27:30;;;;;;;7.68;1.58;;;10.00;1.00;;;;;;5056238;28;20105;-26
2023/04/13 11:30:09;;;;;;;5.88;1.52;;;10.00;1.00;;;;;;5073184;28;20055;-26
2023/04/13 11:32:42;;;;;;;9.18;1.13;;;9.80;99.90;;;;;;5051818;28;20162;-26
2023/04/13 11:35:08;;;;;;;12.97;1.53;;;10.00;1.00;;;;;;5053996;28;20053;-26
2023/04/13 11:37:39;;;;;;;8.43;1.80;;;10.20;64.80;;;;;;5053862;28;20633;-26
2023/04/13 11:40:13;;;;;;;6.68;1.85;;;10.30;1.00;;;;;;5055226;28;20064;-26
2023/04/13 11:42:41;;;;;;;4.40;0.95;;;10.10;1.00;;;;;;5056978;28;20045;-26
2023/04/13 11:45:10;;;;;;;17.67;2.13;;;9.60;99.90;;;;;;5057462;28;20080;-25
2023/04/13 11:47:37;;;;;;;7.60;2.33;;;8.80;1.00;;;;;;5055985;28;20091;-24
2023/04/13 11:50:04;;;;;;;8.77;0.98;;;8.40;1.00;;;;;;5057154;28;20045;-24
2023/04/13 11:52:31;;;;;;;10.40;2.05;;;8.40;1.00;;;;;;5057370;28;20040;-24
2023/04/13 11:54:57;;;;;;;10.40;1.50;;;8.40;1.00;;;;;;5055313;28;20084;-25
2023/04/13 11:57:23;;;;;;;6.10;0.98;;;8.60;97.30;;;;;;5038956;28;20053;-25
2023/04/13 11:59:52;;;;;;;8.43;1.38;;;8.80;89.70;;;;;;5056371;28;20513;-25
2023/04/13 12:02:28;;;;;;;13.20;1.73;;;9.00;1.00;;;;;;5056233;28;20087;-26
2023/04/13 12:04:55;;;;;;;10.32;1.35;;;9.10;1.00;;;;;;5056633;28;20049;-25
2023/04/13 12:07:21;;;;;;;13.93;2.47;;;9.10;1.00;;;;;;5056596;28;20467;-25
2023/04/13 12:09:50;;;;;;;10.95;1.40;;;9.20;99.90;;;;;;5055983;28;20080;-26
2023/04/13 12:12:23;;;;;;;9.55;1.83;;;9.40;99.90;;;;;;5055780;28;20444;-25
2023/04/13 12:14:56;;;;;;;;;;;9.50;1.00;;;;;;5056137;28;20440;-25
2023/04/13 12:17:30;;;;;;;13.05;2.47;;;9.40;99.90;;;;;;5056620;28;19924;-25
2023/04/13 12:19:56;;;;;;;16.08;2.47;;;9.30;99.90;;;;;;5055881;28;20052;-26
2023/04/13 12:22:22;;;;;;;10.27;1.50;;;9.20;99.90;;;;;;5055878;28;20044;-26
2023/04/13 12:24:48;;;;;;;9.75;2.05;;;9.20;99.90;;;;;;5056814;28;20051;-25
2023/04/13 12:27:13;;;;;;;18.92;2.05;;;9.40;99.90;;;;;;5056427;28;20487;-25
2023/04/13 12:29:39;;;;;;;12.25;1.98;;;9.60;99.90;;;;;;5055855;28;20049;-26
2023/04/13 12:32:15;;;;;;;7.38;1.23;;;9.80;99.90;;;;;;5058274;28;20048;-25
2023/04/13 12:34:42;;;;;;;10.38;1.98;;;9.80;14.40;;;;;;5058538;28;20053;-26
2023/04/13 12:37:09;;;;;;;15.50;2.05;;;9.70;99.90;;;;;;5057821;28;20044;-26
2023/04/13 12:39:34;;;;;;;7.13;1.40;;;9.70;99.90;;;;;;5075629;28;20049;-26
2023/04/13 12:42:00;;;;;;;11.98;1.70;;;9.60;99.90;;;;;;5057511;28;20072;-26
2023/04/13 12:44:26;;;;;;;8.02;1.75;;;9.20;75.70;;;;;;5057792;28;20044;-26
2023/04/13 12:46:51;;;;;;;11.82;1.92;;;8.90;1.00;;;;;;5075765;28;20044;-25
2023/04/13 12:49:17;;;;;;;14.30;1.70;;;8.90;1.00;;;;;;5076096;28;20536;-25
2023/04/13 12:51:43;;;;;;;9.40;2.20;;;8.90;1.00;;;;;;5074424;28;20044;-25
2023/04/13 12:54:12;;;;;;;8.77;1.92;;;9.00;1.00;;;;;;5075400;28;20044;-25
2023/04/13 12:56:40;;;;;;;9.10;1.83;;;9.10;1.00;;;;;;5057451;28;20044;-25
2023/04/13 12:59:07;;;;;;;6.60;1.52;;;9.20;1.00;;;;;;5075216;28;20055;-25
2023/04/13 13:01:36;;;;;;;13.15;2.30;;;9.40;99.90;;;;;;5074818;28;20475;-25
2023/04/13 13:04:03;;;;;;;11.00;2.10;;;9.70;99.90;;;;;;5075206;28;20056;-25